Gobernador Roca, Argentina
Current Conditions -  °F | °C
As of 1:00 PM on Thursday 30 Oct 2014 (Local Time) from SGEN Reporting Station
Light Rain Light Rain  
Wind Chill: 66°   Ceiling: 5000
Heat Index: 66°   Visibility: 6mi
Dew Point: 63°   Wind: 9mph
Humidity: 88%   Direction: 140°SE
Pressure: 29.91"   Gusts: NA
Location:  27.18°S, 55.47°W
Report Text: SGEN 301600Z 14008KT 9000 -RA SCT020 OVC050 19/17 Q1013
Loading
Personal Weather Stations






























Interactive Weather Map
Tropical Storm Tracking
New forecast layout! Learn more

10-Day Weather Forecast

Advertisements
Track Severe Weather on mobile